Time;durP1;ratioP1;P1;durP2;ratioP2;P2;SDS_P1;SDS_P2;PMS_P1;PMS_P2;Temp;Humidity;BMP_temperature;BMP_pressure;BME280_temperature;BME280_humidity;BME280_pressure;Samples;Min_cycle;Max_cycle;Signal;HPM_P1;HPM_P2
2022/07/11 00:00:10;;;;;;;1.90;0.70;;;;;;;0.00;0.00;59042.03;21276372;27;20969;-78
2022/07/11 00:10:10;;;;;;;1.48;0.68;;;;;;;0.00;0.00;59042.03;21283654;27;20411;-77
2022/07/11 00:20:11;;;;;;;0.82;0.50;;;;;;;0.00;0.00;59042.03;21281426;27;20141;-77
2022/07/11 00:30:12;;;;;;;0.55;0.40;;;;;;;0.00;0.00;59042.03;21293282;27;20491;-76
2022/07/11 00:40:13;;;;;;;1.00;0.70;;;;;;;0.00;0.00;59042.03;21313424;27;20057;-78
2022/07/11 00:50:14;;;;;;;1.50;0.95;;;;;;;0.00;0.00;59042.03;21307974;27;20043;-78
2022/07/11 01:00:17;;;;;;;0.68;0.65;;;;;;;0.00;0.00;59042.03;21291733;27;20111;-78
2022/07/11 01:10:18;;;;;;;2.17;0.80;;;;;;;0.00;0.00;59042.03;21276552;27;20051;-78
2022/07/11 01:20:24;;;;;;;0.93;0.60;;;;;;;0.00;0.00;59042.03;21294631;27;20054;-78
2022/07/11 01:30:26;;;;;;;2.53;0.60;;;;;;;0.00;0.00;59042.03;21290612;27;20126;-77
2022/07/11 01:40:27;;;;;;;1.70;0.60;;;;;;;0.00;0.00;59042.03;21296711;27;20043;-77
2022/07/11 01:50:27;;;;;;;1.73;0.70;;;;;;;0.00;0.00;59042.03;21282359;27;20091;-77
2022/07/11 02:00:28;;;;;;;1.73;0.65;;;;;;;0.00;0.00;59042.03;21292948;27;72550;-78
2022/07/11 02:10:29;;;;;;;1.73;0.70;;;;;;;0.00;0.00;59042.03;21301710;27;20081;-77
2022/07/11 02:20:30;;;;;;;1.45;0.50;;;;;;;0.00;0.00;59042.03;21285227;27;20115;-76
2022/07/11 02:30:30;;;;;;;2.45;0.90;;;;;;;0.00;0.00;59042.03;21290930;27;20067;-76
2022/07/11 02:40:30;;;;;;;3.88;0.70;;;;;;;0.00;0.00;59042.03;21286459;27;20036;-77
2022/07/11 02:50:32;;;;;;;1.73;0.70;;;;;;;0.00;0.00;59042.03;21271921;27;20876;-78
2022/07/11 03:00:32;;;;;;;1.70;0.70;;;;;;;0.00;0.00;59042.03;21265696;27;20031;-78
2022/07/11 03:10:33;;;;;;;3.50;0.80;;;;;;;0.00;0.00;59042.03;21284554;27;20043;-78
2022/07/11 03:20:33;;;;;;;1.92;0.90;;;;;;;0.00;0.00;59042.03;21289316;27;20085;-78
2022/07/11 03:30:34;;;;;;;1.27;0.68;;;;;;;0.00;0.00;59042.03;21292266;27;20039;-78
2022/07/11 03:40:35;;;;;;;3.05;0.88;;;;;;;0.00;0.00;59042.03;21263722;27;20762;-78
2022/07/11 03:50:35;;;;;;;0.98;0.77;;;;;;;0.00;0.00;59042.03;21288296;27;20089;-78
2022/07/11 04:00:36;;;;;;;2.45;0.70;;;;;;;0.00;0.00;59042.03;21307492;27;20028;-81
2022/07/11 04:10:36;;;;;;;1.55;0.70;;;;;;;0.00;0.00;59042.03;21328094;27;20055;-83
2022/07/11 04:20:37;;;;;;;1.60;0.80;;;;;;;0.00;0.00;59042.03;21314487;27;20503;-80
2022/07/11 04:30:38;;;;;;;3.50;0.77;;;;;;;0.00;0.00;59042.03;21289588;27;20056;-80
2022/07/11 04:40:38;;;;;;;1.35;0.82;;;;;;;0.00;0.00;59042.03;21296331;27;20395;-79
2022/07/11 04:50:43;;;;;;;4.75;1.00;;;;;;;0.00;0.00;59042.03;21341425;27;20043;-79
2022/07/11 05:00:43;;;;;;;1.83;0.80;;;;;;;0.00;0.00;59042.03;21361748;27;20739;-79
2022/07/11 05:10:44;;;;;;;3.53;0.95;;;;;;;0.00;0.00;59042.03;21356941;27;20035;-79
2022/07/11 05:20:44;;;;;;;1.15;0.80;;;;;;;0.00;0.00;59042.03;21334042;27;20038;-80
2022/07/11 05:30:45;;;;;;;2.00;0.90;;;;;;;0.00;0.00;59042.03;21356390;27;20030;-79
2022/07/11 05:40:45;;;;;;;4.05;0.80;;;;;;;0.00;0.00;59042.03;21323500;27;20089;-79
2022/07/11 05:50:46;;;;;;;1.40;0.98;;;;;;;0.00;0.00;59042.03;21313816;27;20051;-79
2022/07/11 06:00:46;;;;;;;1.42;0.63;;;;;;;0.00;0.00;59042.03;21313628;27;20031;-79
2022/07/11 06:10:46;;;;;;;0.50;0.50;;;;;;;0.00;0.00;59042.03;21288669;27;20166;-79
2022/07/11 06:20:47;;;;;;;1.40;0.70;;;;;;;0.00;0.00;59042.03;21299753;27;20755;-78
2022/07/11 06:30:48;;;;;;;2.55;0.82;;;;;;;0.00;0.00;59042.03;21295858;27;20443;-78
2022/07/11 06:40:48;;;;;;;4.30;0.80;;;;;;;0.00;0.00;59042.03;21298947;27;20092;-78
2022/07/11 06:50:49;;;;;;;1.80;0.70;;;;;;;0.00;0.00;59042.03;21285884;27;20066;-77
2022/07/11 07:00:49;;;;;;;2.83;0.90;;;;;;;0.00;0.00;59042.03;21304558;27;20039;-78
2022/07/11 07:10:51;;;;;;;4.65;0.85;;;;;;;0.00;0.00;59042.03;21306676;27;20043;-79
2022/07/11 07:20:52;;;;;;;1.17;0.70;;;;;;;-0.00;nan;69398.97;21299182;27;95910;-78
2022/07/11 07:30:52;;;;;;;1.08;0.50;;;;;;;-0.00;nan;69397.44;20944941;27;100394;-79
2022/07/11 07:40:53;;;;;;;2.10;0.80;;;;;;;-0.00;nan;69395.91;20951796;27;97421;-79
2022/07/11 07:50:53;;;;;;;1.08;0.73;;;;;;;-0.00;nan;69391.34;20959668;27;97503;-78
2022/07/11 08:11:13;;;;;;;4.97;1.33;;;;;;;-0.00;nan;69443.22;20979611;27;99001;-78
2022/07/11 08:21:14;;;;;;;4.57;1.10;;;;;;;-0.00;nan;69461.53;20962504;27;100327;-79
2022/07/11 08:31:14;;;;;;;6.28;1.33;;;;;;;-0.00;nan;69487.47;20969777;27;100644;-79
2022/07/11 08:41:18;;;;;;;3.05;1.00;;;;;;;-0.00;nan;69489.00;20979984;27;98584;-81
2022/07/11 08:51:20;;;;;;;7.55;1.00;;;;;;;-0.00;nan;69472.22;20973724;27;97147;-81
2022/07/11 09:01:28;;;;;;;4.40;1.13;;;;;;;-0.00;nan;69461.53;20952697;27;98342;-80
2022/07/11 09:11:49;;;;;;;4.63;0.90;;;;;;;-0.00;nan;69432.53;20973295;27;100950;-82
2022/07/11 09:32:50;;;;;;;2.78;0.98;;;;;;;-0.00;nan;69403.53;20990067;27;98875;-81
2022/07/11 09:42:52;;;;;;;2.55;1.00;;;;;;;-0.00;nan;69392.84;20985781;27;99658;-80
2022/07/11 09:53:03;;;;;;;4.53;1.00;;;;;;;-0.00;nan;69365.41;20922419;27;97101;-81
2022/07/11 10:03:05;;;;;;;3.38;0.93;;;;;;;-0.00;nan;69356.25;20956510;27;97187;-81
2022/07/11 10:13:05;;;;;;;2.40;0.93;;;;;;;-0.00;nan;69337.94;20886664;27;100637;-81
2022/07/11 10:23:09;;;;;;;2.33;0.93;;;;;;;-0.00;nan;69316.56;20879173;27;97023;-81
2022/07/11 10:33:11;;;;;;;4.18;0.95;;;;;;;-0.00;nan;69301.31;20881267;27;97309;-81
2022/07/11 10:43:30;;;;;;;1.20;0.80;;;;;;;-0.00;nan;69293.69;20892030;27;97600;-80
2022/07/11 10:53:44;;;;;;;2.95;1.00;;;;;;;-0.00;nan;69283.00;20897278;27;98410;-81
2022/07/11 11:03:45;;;;;;;4.28;1.20;;;;;;;-0.00;nan;69269.25;20879199;27;98246;-79
2022/07/11 11:13:46;;;;;;;2.92;1.25;;;;;;;-0.00;nan;69254.00;20948333;27;100996;-79
2022/07/11 11:24:08;;;;;;;6.72;2.00;;;;;;;-0.00;nan;69249.44;20966040;27;98181;-81
2022/07/11 11:34:09;;;;;;;4.53;1.10;;;;;;;-0.00;nan;69261.63;20953099;27;101395;-84
2022/07/11 11:44:10;;;;;;;9.83;1.20;;;;;;;-0.00;nan;69257.06;20983377;27;97919;-84
2022/07/11 11:54:21;;;;;;;8.90;1.10;;;;;;;-0.00;nan;69273.84;20977404;27;97367;-83
2022/07/11 12:04:23;;;;;;;4.75;1.13;;;;;;;-0.00;nan;69269.25;20960081;27;97312;-82
2022/07/11 12:14:23;;;;;;;1.93;0.80;;;;;;;-0.00;nan;69254.00;20892263;27;97314;-83
2022/07/11 12:24:26;;;;;;;5.22;1.00;;;;;;;-0.00;nan;69221.97;20892217;27;96949;-83
2022/07/11 12:34:32;;;;;;;2.45;0.90;;;;;;;-0.00;nan;69208.22;20915836;27;97774;-84
2022/07/11 12:55:00;;;;;;;3.53;0.95;;;;;;;-0.00;nan;69202.13;20909465;27;96941;-84
2022/07/11 13:05:01;;;;;;;5.57;1.20;;;;;;;-0.00;nan;69180.75;20902426;27;99547;-85
2022/07/11 13:15:10;;;;;;;1.85;1.05;;;;;;;-0.00;nan;69159.41;20966796;27;97669;-83
2022/07/11 13:25:15;;;;;;;4.72;1.00;;;;;;;-0.00;nan;69151.78;20979191;27;100897;-83
2022/07/11 13:35:17;;;;;;;5.55;1.20;;;;;;;-0.00;nan;69163.97;20977477;27;98156;-83
2022/07/11 13:45:22;;;;;;;7.32;1.70;;;;;;;-0.00;nan;69160.94;20999410;27;97077;-83
2022/07/11 13:55:23;;;;;;;3.00;1.40;;;;;;;-0.00;nan;69139.56;21018883;27;97199;-81
2022/07/11 14:05:24;;;;;;;3.00;1.15;;;;;;;-0.00;nan;69153.28;20988031;27;97763;-83
2022/07/11 14:15:25;;;;;;;7.28;1.30;;;;;;;-0.00;nan;69165.50;21010808;27;96972;-81
2022/07/11 14:25:26;;;;;;;5.47;1.10;;;;;;;-0.00;nan;69176.19;20984303;27;97200;-82
2022/07/11 14:35:26;;;;;;;3.87;0.90;;;;;;;-0.00;nan;69196.03;20957224;27;97326;-82
2022/07/11 14:45:26;;;;;;;4.22;1.30;;;;;;;-0.00;nan;69188.38;20960706;27;100107;-82
2022/07/11 14:55:27;;;;;;;7.70;1.23;;;;;;;-0.00;nan;69162.44;20963651;27;98340;-82
2022/07/11 15:05:27;;;;;;;3.97;1.20;;;;;;;-0.00;nan;69156.34;20941947;27;98624;-83
2022/07/11 15:15:29;;;;;;;1.85;0.90;;;;;;;-0.00;nan;69167.03;20968724;27;98303;-81
2022/07/11 15:25:31;;;;;;;4.85;1.00;;;;;;;-0.00;nan;69163.97;20958989;27;98810;-82
2022/07/11 15:35:32;;;;;;;6.78;1.20;;;;;;;-0.00;nan;69162.44;20964557;27;101717;-83
2022/07/11 15:45:33;;;;;;;7.17;1.30;;;;;;;-0.00;nan;69154.81;20937272;27;101116;-83
2022/07/11 15:55:33;;;;;;;2.75;0.85;;;;;;;-0.00;nan;69150.25;20960122;27;99051;-84
2022/07/11 16:05:34;;;;;;;6.22;1.10;;;;;;;-0.00;nan;69151.78;20961732;27;101206;-85
2022/07/11 16:15:34;;;;;;;3.42;1.00;;;;;;;-0.00;nan;69142.63;20950010;27;98538;-87
2022/07/11 16:25:36;;;;;;;4.28;0.90;;;;;;;-0.00;nan;69141.09;20951217;27;98722;-85
2022/07/11 16:35:36;;;;;;;5.20;1.10;;;;;;;-0.00;nan;69141.09;20959896;27;98609;-85
2022/07/11 16:45:37;;;;;;;5.20;1.00;;;;;;;-0.00;nan;69145.66;20965710;27;97761;-86
2022/07/11 16:55:38;;;;;;;2.45;1.00;;;;;;;-0.00;nan;69141.09;20967245;27;97587;-83
2022/07/11 17:05:40;;;;;;;2.23;0.90;;;;;;;-0.00;nan;69151.78;20979731;27;96931;-83
2022/07/11 17:15:40;;;;;;;4.00;0.90;;;;;;;-0.00;nan;69159.41;20976266;27;97520;-83
2022/07/11 17:25:42;;;;;;;18.75;11.35;;;;;;;-0.00;nan;69171.59;20967642;27;97531;-84
2022/07/11 17:35:43;;;;;;;;;;;;;;;-0.00;nan;69180.75;20957756;27;97563;-82
2022/07/11 17:45:44;;;;;;;7.03;1.90;;;;;;;-0.00;nan;69189.91;20968890;27;98320;-82
2022/07/11 17:55:44;;;;;;;3.43;1.20;;;;;;;-0.00;nan;69197.53;21008813;27;97621;-82
2022/07/11 18:05:45;;;;;;;7.28;3.65;;;;;;;-0.00;nan;69209.75;21017949;27;97631;-80
2022/07/11 18:15:45;;;;;;;7.88;3.50;;;;;;;-0.00;nan;69218.91;21010317;27;97580;-82
2022/07/11 18:25:47;;;;;;;5.60;2.25;;;;;;;-0.00;nan;69279.94;20977769;27;97075;-84
2022/07/11 18:35:47;;;;;;;5.13;1.40;;;;;;;-0.00;nan;69322.66;20967596;27;97241;-84
2022/07/11 18:45:48;;;;;;;6.32;2.10;;;;;;;-0.00;nan;69330.31;20967452;27;97965;-83
2022/07/11 18:55:48;;;;;;;5.90;1.52;;;;;;;-0.00;nan;69322.66;20955198;27;101441;-84
2022/07/11 19:05:49;;;;;;;1.85;1.20;;;;;;;-0.00;nan;69321.16;20983670;27;98801;-82
2022/07/11 19:15:49;;;;;;;2.70;1.40;;;;;;;-0.00;nan;69339.44;20967595;27;97404;-83
2022/07/11 19:25:51;;;;;;;5.78;2.92;;;;;;;-0.00;nan;69353.19;20989778;27;97785;-84
2022/07/11 19:35:51;;;;;;;6.93;2.40;;;;;;;-0.00;nan;69359.28;21009566;27;97982;-84
2022/07/11 19:45:54;;;;;;;3.03;1.90;;;;;;;-0.00;nan;69366.91;21004140;27;97114;-84
2022/07/11 20:06:14;;;;;;;2.80;1.15;;;;;;;-0.00;nan;69386.75;21008838;27;99131;-83
2022/07/11 20:16:14;;;;;;;3.10;1.38;;;;;;;-0.00;nan;69385.22;20982074;27;96995;-83
2022/07/11 20:26:14;;;;;;;4.75;1.60;;;;;;;-0.00;nan;69386.75;21006902;27;97485;-83
2022/07/11 20:36:16;;;;;;;2.15;1.30;;;;;;;-0.00;nan;69386.75;20985844;27;97498;-83
2022/07/11 20:46:19;;;;;;;5.63;2.93;;;;;;;-0.00;nan;69382.19;20978135;27;100767;-83
2022/07/11 20:56:19;;;;;;;;;;;;;;;-0.00;nan;69397.44;21019578;27;97903;-83
2022/07/11 21:06:20;;;;;;;4.55;2.55;;;;;;;-0.00;nan;69414.22;20994585;27;97214;-82
2022/07/11 21:16:22;;;;;;;4.53;2.50;;;;;;;-0.00;nan;69431.00;21001530;27;97516;-82
2022/07/11 21:26:22;;;;;;;2.80;1.70;;;;;;;-0.00;nan;69449.31;20964639;27;97387;-83
2022/07/11 21:36:23;;;;;;;5.13;1.55;;;;;;;-0.00;nan;69460.00;20978935;27;97745;-83
2022/07/11 21:46:23;;;;;;;3.92;1.48;;;;;;;-0.00;nan;69469.16;20973743;27;97158;-83
2022/07/11 21:56:25;;;;;;;2.92;1.48;;;;;;;-0.00;nan;69484.41;20995771;27;96793;-84
2022/07/11 22:06:26;;;;;;;3.00;1.50;;;;;;;-0.00;nan;69476.78;20965965;27;100053;-82
2022/07/11 22:16:27;;;;;;;2.13;1.20;;;;;;;-0.00;nan;69492.03;20958128;27;97201;-81
2022/07/11 22:26:27;;;;;;;4.07;1.40;;;;;;;-0.00;nan;69505.78;20983973;27;97828;-82
2022/07/11 22:36:28;;;;;;;3.75;1.55;;;;;;;-0.00;nan;69510.34;21002831;27;97806;-81
2022/07/11 22:46:28;;;;;;;3.28;1.05;;;;;;;-0.00;nan;69514.94;20980956;27;96689;-82
2022/07/11 22:56:29;;;;;;;5.18;1.52;;;;;;;-0.00;nan;69511.88;20977647;27;99175;-81
2022/07/11 23:06:29;;;;;;;5.03;1.65;;;;;;;-0.00;nan;69525.63;20978051;27;97794;-81
2022/07/11 23:16:30;;;;;;;3.85;1.50;;;;;;;-0.00;nan;69531.72;20983602;27;98743;-81
2022/07/11 23:26:31;;;;;;;5.50;1.60;;;;;;;-0.00;nan;69543.91;21003304;27;100028;-81
2022/07/11 23:36:31;;;;;;;2.63;1.30;;;;;;;-0.00;nan;69553.06;20980898;27;97374;-81
2022/07/11 23:46:32;;;;;;;3.22;1.35;;;;;;;-0.00;nan;69556.13;20970082;27;96909;-82
2022/07/11 23:56:32;;;;;;;3.40;1.30;;;;;;;-0.00;nan;69568.34;20964408;27;97196;-81
